createdAt,value
2022-08-30T00:00:21.972Z,26.38
2022-08-30T00:02:50.647Z,26.41
2022-08-30T00:05:19.382Z,26.44
2022-08-30T00:07:47.972Z,26.46
2022-08-30T00:10:17.693Z,26.49
2022-08-30T00:12:46.244Z,26.53
2022-08-30T00:15:16.215Z,26.58
2022-08-30T00:17:45.231Z,26.61
2022-08-30T00:20:19.075Z,26.67
2022-08-30T00:22:47.886Z,26.79
2022-08-30T00:25:17.406Z,26.98
2022-08-30T00:27:46.402Z,27.22
2022-08-30T00:30:16.813Z,27.40
2022-08-30T00:32:45.852Z,27.51
2022-08-30T00:35:17.520Z,27.56
2022-08-30T00:37:46.022Z,27.60
2022-08-30T00:40:16.958Z,27.63
2022-08-30T00:42:50.087Z,27.65
2022-08-30T00:45:26.351Z,27.69
2022-08-30T00:47:55.100Z,27.72
2022-08-30T00:50:27.481Z,27.75
2022-08-30T00:52:59.440Z,27.80
2022-08-30T00:55:29.073Z,27.84
2022-08-30T00:58:01.972Z,27.88
2022-08-30T01:00:33.992Z,27.93
2022-08-30T01:03:02.686Z,27.97
2022-08-30T01:05:31.965Z,28.01
2022-08-30T01:08:00.495Z,28.04
2022-08-30T01:10:29.045Z,28.08
2022-08-30T01:12:57.751Z,28.12
2022-08-30T01:15:26.944Z,28.16
2022-08-30T01:17:58.119Z,28.21
2022-08-30T01:20:38.066Z,28.25
2022-08-30T01:23:17.577Z,28.30
2022-08-30T01:25:50.905Z,28.33
2022-08-30T01:28:26.432Z,28.37
2022-08-30T01:30:55.693Z,28.41
2022-08-30T01:33:25.896Z,28.45
2022-08-30T01:35:56.014Z,28.48
2022-08-30T01:38:38.552Z,28.53
2022-08-30T01:41:32.266Z,28.55
2022-08-30T01:44:03.214Z,28.57
2022-08-30T01:46:37.894Z,28.58
2022-08-30T01:49:09.944Z,28.61
2022-08-30T01:51:39.065Z,28.60
2022-08-30T01:54:08.294Z,28.61
2022-08-30T01:56:36.857Z,28.63
2022-08-30T01:59:06.377Z,28.66
2022-08-30T02:01:38.029Z,28.68
2022-08-30T02:04:08.568Z,28.71
2022-08-30T02:06:39.464Z,28.74
2022-08-30T02:09:08.402Z,28.75
2022-08-30T02:11:37.160Z,28.78
2022-08-30T02:14:06.548Z,28.81
2022-08-30T02:16:35.319Z,28.84
2022-08-30T02:19:04.387Z,28.89
2022-08-30T02:21:32.953Z,28.94
2022-08-30T02:24:01.629Z,28.97
2022-08-30T02:26:30.313Z,29.01
2022-08-30T02:29:01.080Z,29.04
2022-08-30T02:31:29.646Z,29.09
2022-08-30T02:33:58.265Z,29.13
2022-08-30T02:36:26.939Z,29.17
2022-08-30T02:38:55.795Z,29.19
2022-08-30T02:41:24.805Z,29.23
2022-08-30T02:43:53.776Z,29.28
2022-08-30T02:46:22.311Z,29.34
2022-08-30T02:48:51.031Z,29.39
2022-08-30T02:51:19.594Z,29.44
2022-08-30T02:53:48.380Z,29.48
2022-08-30T02:56:18.009Z,29.54
2022-08-30T02:58:49.190Z,29.60
2022-08-30T03:01:19.361Z,29.67
2022-08-30T03:03:49.011Z,29.74
2022-08-30T03:06:17.907Z,29.78
2022-08-30T03:08:46.483Z,29.84
2022-08-30T03:11:15.077Z,29.89
2022-08-30T03:13:43.626Z,29.92
2022-08-30T03:16:12.365Z,29.94
2022-08-30T03:18:41.127Z,29.93
2022-08-30T03:21:14.651Z,29.93
2022-08-30T03:23:43.825Z,29.91
2022-08-30T03:26:15.801Z,29.89
2022-08-30T03:28:45.117Z,29.89
2022-08-30T03:31:14.237Z,29.90
2022-08-30T03:33:43.067Z,29.89
2022-08-30T03:36:13.703Z,29.88
2022-08-30T03:38:42.298Z,29.88
2022-08-30T03:41:10.825Z,29.87
2022-08-30T03:43:39.482Z,29.85
2022-08-30T03:46:09.877Z,29.85
2022-08-30T03:48:38.773Z,29.85
2022-08-30T03:51:07.749Z,29.89
2022-08-30T03:53:36.382Z,29.97
2022-08-30T03:56:05.750Z,30.03
2022-08-30T03:58:35.581Z,30.08
2022-08-30T04:01:04.310Z,30.11
2022-08-30T04:03:32.966Z,30.16
2022-08-30T04:06:02.482Z,30.21
2022-08-30T04:08:31.072Z,30.27
2022-08-30T04:11:00.223Z,30.30
2022-08-30T04:13:28.803Z,30.37
2022-08-30T04:15:57.518Z,30.42
2022-08-30T04:18:26.173Z,30.48
2022-08-30T04:20:55.102Z,30.54
2022-08-30T04:23:23.628Z,30.59
2022-08-30T04:25:52.082Z,30.64
2022-08-30T04:28:20.801Z,30.68
2022-08-30T04:30:49.781Z,30.72
2022-08-30T04:33:19.058Z,30.75
2022-08-30T04:35:50.964Z,30.78
2022-08-30T04:38:20.527Z,30.83
2022-08-30T04:40:51.221Z,30.87
2022-08-30T04:43:19.743Z,30.91
2022-08-30T04:45:49.266Z,30.96
2022-08-30T04:48:18.869Z,31.01
2022-08-30T04:50:47.815Z,31.04
2022-08-30T04:53:17.330Z,31.05
2022-08-30T04:55:46.046Z,31.06
2022-08-30T04:58:14.667Z,31.09
2022-08-30T05:00:45.370Z,31.10
2022-08-30T05:03:14.068Z,31.14
2022-08-30T05:05:42.964Z,31.16
2022-08-30T05:08:15.035Z,31.21
2022-08-30T05:10:46.628Z,31.25
2022-08-30T05:13:16.472Z,31.33
2022-08-30T05:15:45.745Z,31.37
2022-08-30T05:18:15.467Z,31.40
2022-08-30T05:20:45.474Z,31.40
2022-08-30T05:23:14.168Z,31.37
2022-08-30T05:25:43.902Z,31.34
2022-08-30T05:28:12.498Z,31.28
2022-08-30T05:30:41.083Z,31.22
2022-08-30T05:33:09.581Z,31.14
2022-08-30T05:35:38.135Z,31.05
2022-08-30T05:38:06.642Z,30.99
2022-08-30T05:40:35.370Z,30.94
2022-08-30T05:43:05.175Z,30.88
2022-08-30T05:45:33.728Z,30.83
2022-08-30T05:48:02.868Z,30.83
2022-08-30T05:50:31.630Z,30.80
2022-08-30T05:53:00.211Z,30.79
2022-08-30T05:55:28.757Z,30.82
2022-08-30T05:57:57.308Z,30.86
2022-08-30T06:00:26.266Z,30.88
2022-08-30T06:02:55.979Z,30.89
2022-08-30T06:05:24.860Z,30.89
2022-08-30T06:07:54.491Z,30.87
2022-08-30T06:10:23.106Z,30.84
2022-08-30T06:12:51.583Z,30.84
2022-08-30T06:15:20.238Z,30.81
2022-08-30T06:17:50.124Z,30.76
2022-08-30T06:20:21.200Z,30.71
2022-08-30T06:22:49.815Z,30.68
2022-08-30T06:25:18.555Z,30.65
2022-08-30T06:27:47.099Z,30.63
2022-08-30T06:30:16.102Z,30.61
2022-08-30T06:32:47.536Z,30.60
2022-08-30T06:35:16.045Z,30.58
2022-08-30T06:37:44.719Z,30.59
2022-08-30T06:40:14.632Z,30.59
2022-08-30T06:42:43.193Z,30.59
2022-08-30T06:45:12.129Z,30.59
2022-08-30T06:47:41.663Z,30.58
2022-08-30T06:50:14.456Z,30.57
2022-08-30T06:52:45.058Z,30.56
2022-08-30T06:55:17.878Z,30.53
2022-08-30T06:57:47.823Z,30.51
2022-08-30T07:00:18.067Z,30.48
2022-08-30T07:02:46.814Z,30.42
2022-08-30T07:05:18.624Z,30.38
2022-08-30T07:07:47.605Z,30.34
2022-08-30T07:10:17.147Z,30.31
2022-08-30T07:12:45.833Z,30.27
2022-08-30T07:15:15.009Z,30.23
2022-08-30T07:18:12.590Z,30.20
2022-08-30T07:20:41.230Z,30.17
2022-08-30T07:23:11.664Z,30.14
2022-08-30T07:25:42.597Z,30.13
2022-08-30T07:28:12.882Z,30.11
2022-08-30T07:30:43.207Z,30.09
2022-08-30T07:33:11.795Z,30.09
2022-08-30T07:35:40.309Z,30.10
2022-08-30T07:38:08.799Z,30.10
2022-08-30T07:40:39.654Z,30.12
2022-08-30T07:43:08.288Z,30.16
2022-08-30T07:45:39.341Z,30.19
2022-08-30T07:48:08.387Z,30.24
2022-08-30T07:50:36.883Z,30.27
2022-08-30T07:53:07.973Z,30.34
2022-08-30T07:55:39.465Z,30.40
2022-08-30T07:58:08.039Z,30.47
2022-08-30T08:00:36.619Z,30.54
2022-08-30T08:03:09.461Z,30.59
2022-08-30T08:05:40.635Z,30.63
2022-08-30T08:08:09.844Z,30.67
2022-08-30T08:10:40.684Z,30.70
2022-08-30T08:13:09.242Z,30.73
2022-08-30T08:15:38.628Z,30.75
2022-08-30T08:18:08.211Z,30.78
2022-08-30T08:20:36.928Z,30.77
2022-08-30T08:23:06.071Z,30.77
2022-08-30T08:25:36.418Z,30.74
2022-08-30T08:28:05.203Z,30.73
2022-08-30T08:30:36.691Z,30.73
2022-08-30T08:33:06.493Z,30.71
2022-08-30T08:35:35.640Z,30.70
2022-08-30T08:38:04.126Z,30.68
2022-08-30T08:40:58.001Z,30.67
2022-08-30T08:43:28.333Z,30.66
2022-08-30T08:46:11.712Z,30.63
2022-08-30T08:49:00.658Z,30.60
2022-08-30T08:51:58.825Z,30.57
2022-08-30T08:54:48.105Z,30.54
2022-08-30T08:57:18.459Z,30.48
2022-08-30T08:59:47.961Z,30.45
2022-08-30T09:02:30.597Z,30.43
2022-08-30T09:05:04.115Z,30.40
2022-08-30T09:07:37.643Z,30.37
2022-08-30T09:10:06.878Z,30.36
2022-08-30T09:12:35.515Z,30.32
2022-08-30T09:15:29.292Z,30.26
2022-08-30T09:18:03.450Z,30.22
2022-08-30T09:20:49.349Z,30.16
2022-08-30T09:23:17.885Z,30.10
2022-08-30T09:26:02.283Z,30.08
2022-08-30T09:28:45.305Z,30.04
2022-08-30T09:31:32.053Z,30.02
2022-08-30T09:34:07.230Z,29.98
2022-08-30T09:36:52.448Z,29.95
2022-08-30T09:39:36.461Z,29.93
2022-08-30T09:42:20.177Z,29.92
2022-08-30T09:44:48.915Z,29.91
2022-08-30T09:47:32.609Z,29.91
2022-08-30T09:50:13.474Z,29.91
2022-08-30T09:52:49.845Z,29.91
2022-08-30T09:55:42.066Z,29.91
2022-08-30T09:58:58.079Z,29.91
2022-08-30T10:01:41.967Z,29.90
2022-08-30T10:04:31.226Z,29.90
2022-08-30T10:07:33.733Z,29.90
2022-08-30T10:10:16.711Z,29.90
2022-08-30T10:12:55.555Z,29.90
2022-08-30T10:15:37.792Z,29.89
2022-08-30T10:18:27.816Z,29.88
2022-08-30T10:21:19.299Z,29.87
2022-08-30T10:23:55.453Z,29.85
2022-08-30T10:26:23.881Z,29.84
2022-08-30T10:29:01.111Z,29.83
2022-08-30T10:31:51.036Z,29.82
2022-08-30T10:34:47.698Z,29.81
2022-08-30T10:37:24.770Z,29.79
2022-08-30T10:40:25.131Z,29.78
2022-08-30T10:42:57.944Z,29.77
2022-08-30T10:45:28.519Z,29.76
2022-08-30T10:48:14.986Z,29.73
2022-08-30T10:50:49.499Z,29.70
2022-08-30T10:53:42.383Z,29.65
2022-08-30T10:56:16.728Z,29.63
2022-08-30T10:58:45.691Z,29.61
2022-08-30T11:01:33.927Z,29.60
2022-08-30T11:04:20.585Z,29.59
2022-08-30T11:07:12.050Z,29.56
2022-08-30T11:10:14.082Z,29.53
2022-08-30T11:13:00.968Z,29.49
2022-08-30T11:15:37.007Z,29.47
2022-08-30T11:18:11.611Z,29.43
2022-08-30T11:20:44.915Z,29.40
2022-08-30T11:23:25.325Z,29.38
2022-08-30T11:25:58.093Z,29.37
2022-08-30T11:28:39.529Z,29.34
2022-08-30T11:31:12.372Z,29.32
2022-08-30T11:33:50.474Z,29.28
2022-08-30T11:36:37.729Z,29.26
2022-08-30T11:39:31.205Z,29.23
2022-08-30T11:45:26.868Z,29.15
2022-08-30T11:48:04.437Z,29.11
2022-08-30T11:50:48.569Z,29.09
2022-08-30T11:53:46.579Z,29.07
2022-08-30T11:56:23.190Z,29.04
2022-08-30T11:59:21.491Z,29.01
2022-08-30T12:01:56.486Z,28.99
2022-08-30T12:04:41.615Z,28.97
2022-08-30T12:07:10.652Z,28.95
2022-08-30T12:09:39.894Z,28.95
2022-08-30T12:12:33.737Z,28.94
2022-08-30T12:15:02.463Z,28.92
2022-08-30T12:18:19.610Z,28.91
2022-08-30T12:20:51.409Z,28.88
2022-08-30T12:23:22.366Z,28.86
2022-08-30T12:26:10.932Z,28.83
2022-08-30T12:28:42.216Z,28.83
2022-08-30T12:31:23.813Z,28.82
2022-08-30T12:33:58.811Z,28.82
2022-08-30T12:36:51.811Z,28.81
2022-08-30T12:39:36.449Z,28.81
2022-08-30T12:42:19.163Z,28.81
2022-08-30T12:44:50.182Z,28.80
2022-08-30T12:47:32.344Z,28.80
2022-08-30T12:50:01.499Z,28.79
2022-08-30T12:52:33.182Z,28.80
2022-08-30T12:55:30.529Z,28.78
2022-08-30T12:58:11.771Z,28.77
2022-08-30T13:00:43.835Z,28.76
2022-08-30T13:03:34.804Z,28.76
2022-08-30T13:06:04.488Z,28.75
2022-08-30T13:08:38.482Z,28.72
2022-08-30T13:11:29.320Z,28.71
2022-08-30T13:14:34.760Z,28.71
2022-08-30T13:17:11.126Z,28.70
2022-08-30T13:19:44.387Z,28.70
2022-08-30T13:22:27.009Z,28.69
2022-08-30T13:24:55.877Z,28.69
2022-08-30T13:27:26.051Z,28.68
2022-08-30T13:29:54.807Z,28.67
2022-08-30T13:32:25.847Z,28.66
2022-08-30T13:34:54.467Z,28.62
2022-08-30T13:40:18.514Z,28.59
2022-08-30T13:42:47.327Z,28.58
2022-08-30T13:48:08.193Z,28.58
2022-08-30T13:50:36.755Z,28.55
2022-08-30T13:53:05.344Z,28.56
2022-08-30T13:55:35.460Z,28.55
2022-08-30T13:58:04.040Z,28.54
2022-08-30T14:00:37.579Z,28.53
2022-08-30T14:03:06.572Z,28.52
2022-08-30T14:06:15.541Z,28.50
2022-08-30T14:08:47.815Z,28.49
2022-08-30T14:11:21.141Z,28.47
2022-08-30T14:16:43.211Z,28.44
2022-08-30T14:19:13.619Z,28.44
2022-08-30T14:21:43.105Z,28.43
2022-08-30T14:24:14.133Z,28.44
2022-08-30T14:26:52.327Z,28.44
2022-08-30T14:29:24.398Z,28.42
2022-08-30T14:31:53.990Z,28.42
2022-08-30T14:34:24.050Z,28.41
2022-08-30T14:36:52.697Z,28.39
2022-08-30T14:39:22.660Z,28.38
2022-08-30T14:41:55.893Z,28.36
2022-08-30T14:44:25.814Z,28.34
2022-08-30T14:46:55.186Z,28.33
2022-08-30T14:49:25.283Z,28.31
2022-08-30T14:51:55.511Z,28.30
2022-08-30T14:54:27.461Z,28.30
2022-08-30T14:56:56.247Z,28.29
2022-08-30T14:59:26.209Z,28.28
2022-08-30T15:01:54.868Z,28.28
2022-08-30T15:04:23.667Z,28.27
2022-08-30T15:06:52.842Z,28.27
2022-08-30T15:09:24.656Z,28.27
2022-08-30T15:11:58.502Z,28.27
2022-08-30T15:14:28.293Z,28.27
2022-08-30T15:16:59.230Z,28.28
2022-08-30T15:19:28.895Z,28.28
2022-08-30T15:22:02.936Z,28.29
2022-08-30T15:24:32.931Z,28.30
2022-08-30T15:27:02.757Z,28.28
2022-08-30T15:29:32.082Z,28.27
2022-08-30T15:32:02.513Z,28.25
2022-08-30T15:34:32.936Z,28.23
2022-08-30T15:37:02.089Z,28.20
2022-08-30T15:39:32.437Z,28.17
2022-08-30T15:42:01.815Z,28.16
2022-08-30T15:44:34.409Z,28.14
2022-08-30T15:47:03.387Z,28.13
2022-08-30T15:49:31.957Z,28.12
2022-08-30T15:52:05.739Z,28.11
2022-08-30T15:54:36.634Z,28.10
2022-08-30T15:57:05.858Z,28.09
2022-08-30T15:59:34.605Z,28.08
2022-08-30T16:02:03.254Z,28.08
2022-08-30T16:04:32.068Z,28.07
2022-08-30T16:07:00.574Z,28.07
2022-08-30T16:09:30.019Z,28.07
2022-08-30T16:12:02.490Z,28.06
2022-08-30T16:14:33.937Z,28.06
2022-08-30T16:17:03.120Z,28.05
2022-08-30T16:19:32.069Z,28.06
2022-08-30T16:22:00.929Z,28.05
2022-08-30T16:24:29.640Z,28.05
2022-08-30T16:26:58.429Z,28.04
2022-08-30T16:29:27.052Z,28.04
2022-08-30T16:31:56.869Z,28.05
2022-08-30T16:34:26.234Z,28.04
2022-08-30T16:36:55.547Z,28.05
2022-08-30T16:39:24.988Z,28.06
2022-08-30T16:41:53.781Z,28.06
2022-08-30T16:44:22.287Z,28.07
2022-08-30T16:46:55.099Z,28.06
2022-08-30T16:49:25.499Z,28.05
2022-08-30T16:51:54.817Z,28.04
2022-08-30T16:54:24.327Z,28.04
2022-08-30T16:56:53.254Z,28.04
2022-08-30T16:59:22.502Z,28.02
2022-08-30T17:01:51.076Z,28.03
2022-08-30T17:04:21.712Z,28.03
2022-08-30T17:06:51.369Z,28.02
2022-08-30T17:09:20.731Z,28.02
2022-08-30T17:11:51.258Z,28.01
2022-08-30T17:14:27.781Z,28.00
2022-08-30T17:17:00.362Z,28.00
2022-08-30T17:19:29.551Z,27.99
2022-08-30T17:21:59.070Z,27.99
2022-08-30T17:24:28.409Z,27.97
2022-08-30T17:26:58.413Z,27.95
2022-08-30T17:29:27.091Z,27.94
2022-08-30T17:31:56.953Z,27.93
2022-08-30T17:34:27.121Z,27.92
2022-08-30T17:36:58.126Z,27.92
2022-08-30T17:39:29.291Z,27.91
2022-08-30T17:41:58.256Z,27.90
2022-08-30T17:44:30.930Z,27.89
2022-08-30T17:47:01.739Z,27.88
2022-08-30T17:49:31.256Z,27.87
2022-08-30T17:52:01.466Z,27.85
2022-08-30T17:54:32.161Z,27.85
2022-08-30T17:57:01.090Z,27.84
2022-08-30T17:59:32.591Z,27.83
2022-08-30T18:02:02.965Z,27.83
2022-08-30T18:04:31.533Z,27.83
2022-08-30T18:07:00.088Z,27.83
2022-08-30T18:09:33.183Z,27.82
2022-08-30T18:12:02.938Z,27.83
2022-08-30T18:14:31.728Z,27.81
2022-08-30T18:17:00.399Z,27.80
2022-08-30T18:19:31.405Z,27.79
2022-08-30T18:22:03.229Z,27.77
2022-08-30T18:24:32.594Z,27.77
2022-08-30T18:27:03.474Z,27.76
2022-08-30T18:29:34.945Z,27.75
2022-08-30T18:32:04.332Z,27.75
2022-08-30T18:34:33.529Z,27.74
2022-08-30T18:37:02.782Z,27.73
2022-08-30T18:39:34.127Z,27.70
2022-08-30T18:42:05.113Z,27.69
2022-08-30T18:44:35.257Z,27.68
2022-08-30T18:47:05.878Z,27.68
2022-08-30T18:49:36.159Z,27.68
2022-08-30T18:52:07.931Z,27.67
2022-08-30T18:54:52.375Z,27.67
2022-08-30T18:57:24.353Z,27.66
2022-08-30T18:59:52.909Z,27.64
2022-08-30T19:02:21.905Z,27.63
2022-08-30T19:04:56.329Z,27.64
2022-08-30T19:07:30.911Z,27.65
2022-08-30T19:10:14.919Z,27.65
2022-08-30T19:12:49.975Z,27.63
2022-08-30T19:15:21.137Z,27.63
2022-08-30T19:17:50.025Z,27.61
2022-08-30T19:20:22.657Z,27.61
2022-08-30T19:23:08.814Z,27.59
2022-08-30T19:25:40.549Z,27.58
2022-08-30T19:28:09.455Z,27.57
2022-08-30T19:30:38.518Z,27.58
2022-08-30T19:33:07.117Z,27.58
2022-08-30T19:35:40.200Z,27.56
2022-08-30T19:38:08.736Z,27.56
2022-08-30T19:40:37.277Z,27.55
2022-08-30T19:43:07.822Z,27.53
2022-08-30T19:45:36.433Z,27.51
2022-08-30T19:48:05.451Z,27.50
2022-08-30T19:50:34.246Z,27.51
2022-08-30T19:53:04.611Z,27.50
2022-08-30T19:55:35.266Z,27.49
2022-08-30T19:58:03.962Z,27.48
2022-08-30T20:00:33.328Z,27.47
2022-08-30T20:03:05.554Z,27.45
2022-08-30T20:05:35.157Z,27.43
2022-08-30T20:08:03.874Z,27.42
2022-08-30T20:10:32.419Z,27.42
2022-08-30T20:13:01.495Z,27.41
2022-08-30T20:15:29.991Z,27.40
2022-08-30T20:18:14.545Z,27.41
2022-08-30T20:20:48.069Z,27.39
2022-08-30T20:23:19.734Z,27.40
2022-08-30T20:25:56.439Z,27.40
2022-08-30T20:28:26.625Z,27.39
2022-08-30T20:30:57.060Z,27.38
2022-08-30T20:33:26.755Z,27.38
2022-08-30T20:35:55.721Z,27.39
2022-08-30T20:38:25.108Z,27.38
2022-08-30T20:40:57.502Z,27.37
2022-08-30T20:43:30.136Z,27.37
2022-08-30T20:45:58.822Z,27.37
2022-08-30T20:48:29.715Z,27.36
2022-08-30T20:50:58.233Z,27.35
2022-08-30T20:53:26.828Z,27.36
2022-08-30T20:55:55.386Z,27.35
2022-08-30T20:58:23.851Z,27.35
2022-08-30T21:00:54.565Z,27.34
2022-08-30T21:03:26.205Z,27.33
2022-08-30T21:05:57.574Z,27.32
2022-08-30T21:08:26.549Z,27.31
2022-08-30T21:10:55.626Z,27.28
2022-08-30T21:13:24.262Z,27.28
2022-08-30T21:16:00.513Z,27.28
2022-08-30T21:18:34.977Z,27.26
2022-08-30T21:21:22.224Z,27.26
2022-08-30T21:23:51.838Z,27.27
2022-08-30T21:26:21.584Z,27.25
2022-08-30T21:28:51.609Z,27.25
2022-08-30T21:31:23.493Z,27.24
2022-08-30T21:33:53.642Z,27.22
2022-08-30T21:36:42.379Z,27.21
2022-08-30T21:39:12.131Z,27.20
2022-08-30T21:41:40.890Z,27.18
2022-08-30T21:44:13.021Z,27.17
2022-08-30T21:46:42.317Z,27.16
2022-08-30T21:49:13.421Z,27.14
2022-08-30T21:51:45.830Z,27.14
2022-08-30T21:54:16.010Z,27.14
2022-08-30T21:56:48.085Z,27.14
2022-08-30T21:59:17.302Z,27.13
2022-08-30T22:01:46.012Z,27.11
2022-08-30T22:04:16.262Z,27.12
2022-08-30T22:06:51.305Z,27.12
2022-08-30T22:09:23.958Z,27.10
2022-08-30T22:11:53.578Z,27.08
2022-08-30T22:14:24.378Z,27.08
2022-08-30T22:16:55.138Z,27.06
2022-08-30T22:19:23.933Z,27.05
2022-08-30T22:22:01.453Z,27.04
2022-08-30T22:24:33.025Z,27.02
2022-08-30T22:27:03.295Z,27.02
2022-08-30T22:29:32.027Z,27.01
2022-08-30T22:32:01.084Z,27.02
2022-08-30T22:34:29.729Z,27.00
2022-08-30T22:36:58.285Z,27.00
2022-08-30T22:39:27.491Z,26.99
2022-08-30T22:41:56.177Z,26.98
2022-08-30T22:44:24.766Z,26.97
2022-08-30T22:46:53.409Z,26.96
2022-08-30T22:49:22.005Z,26.96
2022-08-30T22:51:51.721Z,26.95
2022-08-30T22:54:20.287Z,26.95
2022-08-30T22:56:48.833Z,26.96
2022-08-30T22:59:17.530Z,26.94
2022-08-30T23:01:48.044Z,26.96
2022-08-30T23:04:16.743Z,26.96
2022-08-30T23:06:50.173Z,26.97
2022-08-30T23:09:19.359Z,26.98
2022-08-30T23:11:48.348Z,26.98
2022-08-30T23:14:17.201Z,26.98
2022-08-30T23:16:46.143Z,26.99
2022-08-30T23:19:15.003Z,26.99
2022-08-30T23:21:44.412Z,27.00
2022-08-30T23:24:31.100Z,27.01
2022-08-30T23:27:17.903Z,27.02
2022-08-30T23:30:04.834Z,27.03
2022-08-30T23:32:52.296Z,27.04
2022-08-30T23:35:39.571Z,27.07
2022-08-30T23:38:26.595Z,27.09
2022-08-30T23:41:13.615Z,27.11
2022-08-30T23:44:00.357Z,27.13
2022-08-30T23:46:47.372Z,27.14
2022-08-30T23:49:34.070Z,27.17
2022-08-30T23:52:21.223Z,27.19
2022-08-30T23:55:08.230Z,27.22
2022-08-30T23:57:55.179Z,27.24
